createdAt,value
2023-07-25T00:00:23.000Z,0
2023-07-25T00:01:40.000Z,0
2023-07-25T00:02:56.000Z,0
2023-07-25T00:04:12.000Z,0
2023-07-25T00:05:28.000Z,0
2023-07-25T00:06:45.000Z,0
2023-07-25T00:08:01.000Z,0
2023-07-25T00:09:17.000Z,0
2023-07-25T00:10:34.000Z,0
2023-07-25T00:11:50.000Z,0
2023-07-25T00:13:06.000Z,0
2023-07-25T00:14:23.000Z,0
2023-07-25T00:15:38.000Z,0
2023-07-25T00:16:54.000Z,0
2023-07-25T00:18:10.000Z,0
2023-07-25T00:19:27.000Z,0
2023-07-25T00:20:43.000Z,0
2023-07-25T00:21:59.000Z,0
2023-07-25T00:23:16.000Z,0
2023-07-25T00:24:32.000Z,0
2023-07-25T00:25:48.000Z,0
2023-07-25T00:27:04.000Z,0
2023-07-25T00:28:21.000Z,0
2023-07-25T00:29:37.000Z,0
2023-07-25T00:30:53.000Z,0
2023-07-25T00:32:09.000Z,0
2023-07-25T00:33:25.579Z,0
2023-07-25T00:34:41.000Z,0
2023-07-25T00:35:57.000Z,0
2023-07-25T00:37:14.000Z,0
2023-07-25T00:38:30.000Z,0
2023-07-25T00:39:46.000Z,0
2023-07-25T00:41:03.000Z,0
2023-07-25T00:42:19.000Z,0
2023-07-25T00:43:35.000Z,0
2023-07-25T00:44:51.000Z,0
2023-07-25T00:46:08.476Z,0
2023-07-25T00:47:24.000Z,0
2023-07-25T00:48:39.000Z,0
2023-07-25T00:49:56.000Z,0
2023-07-25T00:51:12.000Z,0
2023-07-25T00:52:28.000Z,0
2023-07-25T00:53:44.000Z,0
2023-07-25T00:55:01.000Z,0
2023-07-25T00:56:17.000Z,0
2023-07-25T00:57:33.000Z,0
2023-07-25T00:58:50.000Z,0
2023-07-25T01:00:06.000Z,0
2023-07-25T01:01:22.000Z,0
2023-07-25T01:02:38.000Z,0
2023-07-25T01:03:55.000Z,0
2023-07-25T01:05:10.000Z,0
2023-07-25T01:06:26.000Z,0
2023-07-25T01:07:43.000Z,0
2023-07-25T01:08:59.000Z,0
2023-07-25T01:10:15.000Z,0
2023-07-25T01:11:31.000Z,0
2023-07-25T01:12:47.000Z,0
2023-07-25T01:14:03.000Z,0
2023-07-25T01:15:19.000Z,0
2023-07-25T01:16:36.000Z,0
2023-07-25T01:17:52.000Z,0
2023-07-25T01:19:08.000Z,0
2023-07-25T01:20:25.000Z,0
2023-07-25T01:21:41.000Z,0
2023-07-25T01:22:57.000Z,0
2023-07-25T01:24:13.000Z,0
2023-07-25T01:25:30.000Z,0
2023-07-25T01:26:46.000Z,0
2023-07-25T01:28:02.000Z,0
2023-07-25T01:29:18.000Z,0
2023-07-25T01:30:34.000Z,0
2023-07-25T01:31:50.000Z,0
2023-07-25T01:33:06.000Z,0
2023-07-25T01:34:23.000Z,0
2023-07-25T01:35:39.000Z,0
2023-07-25T01:38:12.000Z,0
2023-07-25T01:39:28.000Z,0
2023-07-25T01:40:44.000Z,0
2023-07-25T01:42:00.000Z,0
2023-07-25T01:43:17.000Z,0
2023-07-25T01:44:33.000Z,0
2023-07-25T01:45:48.000Z,0
2023-07-25T01:47:05.000Z,0
2023-07-25T01:48:21.000Z,0
2023-07-25T01:49:37.000Z,0
2023-07-25T01:50:53.000Z,0
2023-07-25T01:52:10.000Z,0
2023-07-25T01:53:26.000Z,0
2023-07-25T01:54:42.000Z,0
2023-07-25T01:55:59.000Z,0
2023-07-25T01:57:15.000Z,0
2023-07-25T01:58:31.000Z,0
2023-07-25T01:59:47.000Z,0
2023-07-25T02:01:04.000Z,0
2023-07-25T02:02:19.000Z,0
2023-07-25T02:03:35.000Z,0
2023-07-25T02:04:52.000Z,0
2023-07-25T02:06:08.000Z,0
2023-07-25T02:07:24.000Z,0
2023-07-25T02:08:40.000Z,0
2023-07-25T02:09:57.000Z,0
2023-07-25T02:11:13.000Z,0
2023-07-25T02:12:29.000Z,0
2023-07-25T02:13:46.000Z,0
2023-07-25T02:15:02.000Z,0
2023-07-25T02:16:18.000Z,0
2023-07-25T02:17:35.000Z,0
2023-07-25T02:18:50.000Z,0
2023-07-25T02:20:06.000Z,0
2023-07-25T02:21:22.000Z,0
2023-07-25T02:22:39.000Z,0
2023-07-25T02:23:55.000Z,0
2023-07-25T02:25:11.000Z,0
2023-07-25T02:26:28.000Z,0
2023-07-25T02:27:44.000Z,0
2023-07-25T02:29:00.000Z,0
2023-07-25T02:30:16.000Z,0
2023-07-25T02:31:33.000Z,0
2023-07-25T02:32:49.000Z,0
2023-07-25T02:34:05.000Z,0
2023-07-25T02:35:21.000Z,0
2023-07-25T02:36:37.000Z,0
2023-07-25T02:37:53.000Z,0
2023-07-25T02:39:09.000Z,0
2023-07-25T02:40:26.455Z,0
2023-07-25T02:41:42.000Z,0
2023-07-25T02:42:58.000Z,0
2023-07-25T02:44:15.000Z,0
2023-07-25T02:45:31.000Z,0
2023-07-25T02:46:47.000Z,0
2023-07-25T02:48:03.000Z,0
2023-07-25T02:49:20.000Z,0
2023-07-25T02:50:36.000Z,0
2023-07-25T02:51:51.000Z,0
2023-07-25T02:53:08.000Z,0
2023-07-25T02:54:24.000Z,0
2023-07-25T02:55:40.000Z,0
2023-07-25T02:56:56.000Z,0
2023-07-25T02:58:13.000Z,0
2023-07-25T02:59:29.000Z,0
2023-07-25T03:00:45.000Z,0
2023-07-25T03:02:02.000Z,1
2023-07-25T03:03:18.000Z,0
2023-07-25T03:04:34.000Z,0
2023-07-25T03:05:50.000Z,1
2023-07-25T03:07:07.000Z,1
2023-07-25T03:08:23.000Z,1
2023-07-25T03:09:38.000Z,2
2023-07-25T03:10:54.000Z,2
2023-07-25T03:12:11.000Z,2
2023-07-25T03:13:27.000Z,1
2023-07-25T03:14:43.000Z,1
2023-07-25T03:15:59.000Z,2
2023-07-25T03:17:15.000Z,1
2023-07-25T03:18:32.000Z,3
2023-07-25T03:19:48.000Z,10
2023-07-25T03:21:04.000Z,7
2023-07-25T03:22:20.000Z,6
2023-07-25T03:23:37.000Z,8
2023-07-25T03:24:53.000Z,7
2023-07-25T03:26:08.912Z,10
2023-07-25T03:27:24.000Z,10
2023-07-25T03:28:41.000Z,14
2023-07-25T03:29:57.000Z,15
2023-07-25T03:31:13.830Z,19
2023-07-25T03:32:29.000Z,22
2023-07-25T03:33:46.000Z,25
2023-07-25T03:35:02.000Z,28
2023-07-25T03:36:18.000Z,30
2023-07-25T03:37:34.000Z,36
2023-07-25T03:38:50.000Z,41
2023-07-25T03:40:07.000Z,44
2023-07-25T03:41:23.000Z,48
2023-07-25T03:42:38.000Z,53
2023-07-25T03:43:54.000Z,60
2023-07-25T03:45:11.000Z,67
2023-07-25T03:46:27.000Z,72
2023-07-25T03:47:43.000Z,80
2023-07-25T03:48:59.000Z,84
2023-07-25T03:50:16.000Z,90
2023-07-25T03:51:32.000Z,101
2023-07-25T03:52:48.000Z,101
2023-07-25T03:54:04.000Z,108
2023-07-25T03:55:21.000Z,116
2023-07-25T03:56:37.000Z,128
2023-07-25T03:57:53.000Z,140
2023-07-25T03:59:08.000Z,153
2023-07-25T04:00:24.000Z,162
2023-07-25T04:01:41.000Z,172
2023-07-25T04:02:57.000Z,185
2023-07-25T04:04:13.000Z,196
2023-07-25T04:05:29.000Z,211
2023-07-25T04:06:46.000Z,236
2023-07-25T04:08:02.000Z,262
2023-07-25T04:09:18.876Z,278
2023-07-25T04:10:34.000Z,296
2023-07-25T04:11:51.000Z,314
2023-07-25T04:13:07.000Z,329
2023-07-25T04:14:23.000Z,347
2023-07-25T04:15:38.000Z,358
2023-07-25T04:16:55.000Z,365
2023-07-25T04:18:11.000Z,386
2023-07-25T04:19:27.000Z,392
2023-07-25T04:20:43.000Z,396
2023-07-25T04:21:59.000Z,407
2023-07-25T04:23:16.000Z,417
2023-07-25T04:24:32.000Z,425
2023-07-25T04:25:48.000Z,435
2023-07-25T04:27:04.000Z,457
2023-07-25T04:28:21.000Z,465
2023-07-25T04:29:37.362Z,491
2023-07-25T04:30:53.000Z,517
2023-07-25T04:32:08.000Z,549
2023-07-25T04:33:25.000Z,536
2023-07-25T04:34:41.000Z,548
2023-07-25T04:35:57.000Z,593
2023-07-25T04:37:13.000Z,598
2023-07-25T04:38:30.000Z,600
2023-07-25T04:39:46.000Z,588
2023-07-25T04:41:02.000Z,598
2023-07-25T04:42:18.000Z,627
2023-07-25T04:43:34.000Z,635
2023-07-25T04:44:51.000Z,713
2023-07-25T04:46:07.000Z,722
2023-07-25T04:47:23.000Z,708
2023-07-25T04:48:39.000Z,692
2023-07-25T04:49:56.358Z,704
2023-07-25T04:51:11.000Z,716
2023-07-25T04:52:27.000Z,730
2023-07-25T04:53:43.000Z,746
2023-07-25T04:55:00.000Z,755
2023-07-25T04:56:16.000Z,770
2023-07-25T04:57:32.000Z,785
2023-07-25T04:58:48.000Z,800
2023-07-25T05:00:05.240Z,811
2023-07-25T05:01:21.000Z,831
2023-07-25T05:02:37.000Z,855
2023-07-25T05:03:53.000Z,876
2023-07-25T05:05:09.000Z,894
2023-07-25T05:06:26.000Z,854
2023-07-25T05:07:41.000Z,997
2023-07-25T05:08:57.000Z,981
2023-07-25T05:10:13.000Z,980
2023-07-25T05:11:30.000Z,900
2023-07-25T05:12:46.000Z,1059
2023-07-25T05:14:02.000Z,1158
2023-07-25T05:15:18.000Z,1119
2023-07-25T05:16:35.000Z,1110
2023-07-25T05:17:51.000Z,1137
2023-07-25T05:19:07.000Z,1115
2023-07-25T05:21:40.206Z,1174
2023-07-25T05:22:56.000Z,1220
2023-07-25T05:24:11.000Z,1272
2023-07-25T05:25:27.000Z,1415
2023-07-25T05:26:43.000Z,1430
2023-07-25T05:27:59.000Z,1449
2023-07-25T05:29:15.000Z,1475
2023-07-25T05:30:31.000Z,1511
2023-07-25T05:31:47.000Z,1518
2023-07-25T05:33:04.000Z,1545
2023-07-25T05:34:20.000Z,1560
2023-07-25T05:35:36.000Z,1585
2023-07-25T05:36:52.000Z,1606
2023-07-25T05:39:25.000Z,1645
2023-07-25T05:40:41.000Z,1692
2023-07-25T05:41:57.000Z,1628
2023-07-25T05:43:13.000Z,1684
2023-07-25T05:44:29.000Z,1721
2023-07-25T05:45:45.000Z,1729
2023-07-25T05:47:01.000Z,1748
2023-07-25T05:48:17.000Z,1766
2023-07-25T05:49:34.000Z,1779
2023-07-25T05:50:50.000Z,1804
2023-07-25T05:52:06.000Z,1830
2023-07-25T05:53:22.000Z,1852
2023-07-25T05:54:39.000Z,1859
2023-07-25T05:55:55.000Z,1878
2023-07-25T05:57:11.000Z,1898
2023-07-25T05:58:28.038Z,2044
2023-07-25T05:59:44.000Z,1727
2023-07-25T06:00:59.000Z,1945
2023-07-25T06:02:15.000Z,1954
2023-07-25T06:03:31.000Z,1976
2023-07-25T06:04:47.000Z,1995
2023-07-25T06:06:04.000Z,2014
2023-07-25T06:07:20.000Z,2036
2023-07-25T06:08:36.000Z,2037
2023-07-25T06:09:52.000Z,2078
2023-07-25T06:11:09.000Z,2049
2023-07-25T06:12:25.000Z,2102
2023-07-25T06:13:41.000Z,2111
2023-07-25T06:14:57.000Z,2126
2023-07-25T06:16:14.000Z,2153
2023-07-25T06:17:29.000Z,2202
2023-07-25T06:18:45.000Z,2245
2023-07-25T06:20:01.000Z,2298
2023-07-25T06:21:18.000Z,2378
2023-07-25T06:22:34.000Z,2612
2023-07-25T06:23:50.000Z,2548
2023-07-25T06:25:06.000Z,2725
2023-07-25T06:26:22.000Z,2771
2023-07-25T06:27:39.000Z,2469
2023-07-25T06:28:55.674Z,2495
2023-07-25T06:30:11.000Z,2626
2023-07-25T06:31:27.000Z,2642
2023-07-25T06:32:44.000Z,2459
2023-07-25T06:34:00.000Z,3063
2023-07-25T06:35:15.000Z,2639
2023-07-25T06:36:31.000Z,2632
2023-07-25T06:37:48.000Z,2689
2023-07-25T06:39:04.000Z,2512
2023-07-25T06:40:20.000Z,1646
2023-07-25T06:41:36.000Z,2515
2023-07-25T06:42:53.000Z,2895
2023-07-25T06:44:09.000Z,2831
2023-07-25T06:45:25.000Z,2773
2023-07-25T06:46:41.936Z,2230
2023-07-25T06:47:57.000Z,2853
2023-07-25T06:49:14.000Z,3012
2023-07-25T06:50:30.000Z,2772
2023-07-25T06:51:45.000Z,3035
2023-07-25T06:53:01.000Z,2289
2023-07-25T06:54:18.000Z,4243
2023-07-25T06:55:34.000Z,1908
2023-07-25T06:56:50.000Z,4178
2023-07-25T06:58:06.000Z,4104
2023-07-25T06:59:23.000Z,4700
2023-07-25T07:00:39.000Z,3627
2023-07-25T07:01:55.000Z,2952
2023-07-25T07:03:11.000Z,3220
2023-07-25T07:04:27.000Z,3245
2023-07-25T07:05:44.000Z,3085
2023-07-25T07:07:00.713Z,2749
2023-07-25T07:08:15.000Z,2380
2023-07-25T07:09:31.000Z,2979
2023-07-25T07:10:48.000Z,3170
2023-07-25T07:12:04.000Z,3723
2023-07-25T07:13:20.000Z,3176
2023-07-25T07:14:37.101Z,3066
2023-07-25T07:15:53.000Z,3535
2023-07-25T07:17:09.000Z,3707
2023-07-25T07:18:25.000Z,4144
2023-07-25T07:19:41.000Z,4218
2023-07-25T07:20:58.000Z,4239
2023-07-25T07:22:14.000Z,4181
2023-07-25T07:23:30.000Z,4328
2023-07-25T07:24:45.000Z,4075
2023-07-25T07:26:01.000Z,3916
2023-07-25T07:27:18.000Z,4042
2023-07-25T07:28:34.000Z,4193
2023-07-25T07:29:50.000Z,4445
2023-07-25T07:31:06.000Z,4625
2023-07-25T07:32:23.000Z,4288
2023-07-25T07:33:39.000Z,4218
2023-07-25T07:34:55.000Z,3814
2023-07-25T07:36:11.000Z,3436
2023-07-25T07:37:28.000Z,3157
2023-07-25T07:38:44.000Z,3327
2023-07-25T07:40:00.000Z,3872
2023-07-25T07:41:15.000Z,3732
2023-07-25T07:42:32.000Z,1933
2023-07-25T07:43:48.000Z,5535
2023-07-25T07:45:04.000Z,5544
2023-07-25T07:46:20.000Z,3351
2023-07-25T07:47:36.000Z,7262
2023-07-25T07:48:53.000Z,4548
2023-07-25T07:50:09.000Z,5511
2023-07-25T07:51:25.000Z,5905
2023-07-25T07:52:41.000Z,4176
2023-07-25T07:53:58.000Z,4729
2023-07-25T07:55:14.000Z,4546
2023-07-25T07:56:30.000Z,5408
2023-07-25T07:59:02.000Z,4813
2023-07-25T08:00:18.000Z,4652
2023-07-25T08:01:34.000Z,6617
2023-07-25T08:02:50.000Z,5705
2023-07-25T08:04:07.000Z,5329
2023-07-25T08:05:23.000Z,4796
2023-07-25T08:06:39.000Z,4812
2023-07-25T08:07:55.000Z,4621
2023-07-25T08:09:11.000Z,4566
2023-07-25T08:10:28.000Z,3790
2023-07-25T08:11:44.000Z,4833
2023-07-25T08:13:00.000Z,6148
2023-07-25T08:14:16.000Z,6717
2023-07-25T08:15:32.000Z,5020
2023-07-25T08:16:48.000Z,5007
2023-07-25T08:18:04.000Z,5430
2023-07-25T08:19:20.000Z,4743
2023-07-25T08:20:37.000Z,5805
2023-07-25T08:21:53.000Z,4562
2023-07-25T08:23:09.000Z,4127
2023-07-25T08:24:25.000Z,4222
2023-07-25T08:25:41.000Z,3754
2023-07-25T08:26:58.000Z,3627
2023-07-25T08:28:14.000Z,3605
2023-07-25T08:29:30.000Z,4137
2023-07-25T08:30:46.000Z,4128
2023-07-25T08:32:03.000Z,4408
2023-07-25T08:33:18.000Z,4335
2023-07-25T08:34:34.000Z,3923
2023-07-25T08:35:51.085Z,4392
2023-07-25T08:37:07.000Z,4478
2023-07-25T08:38:23.000Z,4209
2023-07-25T08:39:39.000Z,4276
2023-07-25T08:40:55.000Z,4216
2023-07-25T08:42:12.252Z,4269
2023-07-25T08:43:28.000Z,4198
2023-07-25T08:44:44.000Z,4427
2023-07-25T08:46:00.000Z,5099
2023-07-25T08:47:16.000Z,5524
2023-07-25T08:49:49.000Z,5288
2023-07-25T08:51:04.000Z,4865
2023-07-25T08:52:20.000Z,4466
2023-07-25T08:53:37.000Z,4279
2023-07-25T08:54:53.000Z,3931
2023-07-25T08:56:09.000Z,3807
2023-07-25T08:57:25.000Z,3362
2023-07-25T08:58:42.000Z,3199
2023-07-25T08:59:58.000Z,3330
2023-07-25T09:01:14.000Z,3470
2023-07-25T09:02:30.000Z,3324
2023-07-25T09:03:47.000Z,3340
2023-07-25T09:05:03.000Z,3124
2023-07-25T09:06:19.000Z,3023
2023-07-25T09:07:34.000Z,3010
2023-07-25T09:08:51.198Z,2954
2023-07-25T09:10:07.000Z,2996
2023-07-25T09:11:23.000Z,3175
2023-07-25T09:12:39.888Z,3477
2023-07-25T09:13:55.000Z,3370
2023-07-25T09:15:12.000Z,3104
2023-07-25T09:16:28.000Z,2835
2023-07-25T09:17:44.000Z,2476
2023-07-25T09:19:00.000Z,2231
2023-07-25T09:20:17.000Z,2185
2023-07-25T09:21:33.000Z,2145
2023-07-25T09:22:49.000Z,2288
2023-07-25T09:24:04.000Z,2499
2023-07-25T09:25:21.000Z,2602
2023-07-25T09:26:37.486Z,3069
2023-07-25T09:27:53.000Z,3669
2023-07-25T09:29:09.000Z,3745
2023-07-25T09:30:25.000Z,3853
2023-07-25T09:31:42.000Z,3681
2023-07-25T09:32:58.000Z,3436
2023-07-25T09:34:14.000Z,3316
2023-07-25T09:35:30.000Z,3280
2023-07-25T09:36:47.000Z,2992
2023-07-25T09:38:03.000Z,2764
2023-07-25T09:39:19.799Z,2630
2023-07-25T09:40:34.000Z,2546
2023-07-25T09:41:51.000Z,2411
2023-07-25T09:43:06.000Z,2287
2023-07-25T09:44:22.000Z,2062
2023-07-25T09:45:38.000Z,1956
2023-07-25T09:46:55.000Z,1889
2023-07-25T09:48:11.000Z,1888
2023-07-25T09:49:27.000Z,1929
2023-07-25T09:50:43.000Z,1964
2023-07-25T09:51:59.000Z,1976
2023-07-25T09:53:16.000Z,2040
2023-07-25T09:54:32.000Z,2067
2023-07-25T09:55:48.000Z,1994
2023-07-25T09:57:04.000Z,1944
2023-07-25T09:58:21.000Z,2265
2023-07-25T09:59:36.000Z,2296
2023-07-25T10:00:52.000Z,2563
2023-07-25T10:02:08.000Z,2598
2023-07-25T10:03:25.000Z,2534
2023-07-25T10:04:41.536Z,2332
2023-07-25T10:05:57.000Z,1997
2023-07-25T10:07:13.000Z,1914
2023-07-25T10:08:29.000Z,2131
2023-07-25T10:09:46.000Z,2292
2023-07-25T10:11:02.000Z,3523
2023-07-25T10:12:18.000Z,3905
2023-07-25T10:13:34.000Z,2714
2023-07-25T10:14:51.000Z,2437
2023-07-25T10:16:06.000Z,2201
2023-07-25T10:17:22.881Z,2554
2023-07-25T10:18:38.000Z,2488
2023-07-25T10:19:55.000Z,2080
2023-07-25T10:21:11.000Z,2060
2023-07-25T10:22:27.000Z,1785
2023-07-25T10:23:43.000Z,1243
2023-07-25T10:25:00.000Z,933
2023-07-25T10:26:16.000Z,776
2023-07-25T10:27:32.000Z,744
2023-07-25T10:28:48.000Z,873
2023-07-25T10:30:04.000Z,1070
2023-07-25T10:31:21.000Z,1272
2023-07-25T10:32:36.000Z,1407
2023-07-25T10:33:52.000Z,1863
2023-07-25T10:35:08.000Z,1668
2023-07-25T10:36:25.000Z,2050
2023-07-25T10:37:41.000Z,2389
2023-07-25T10:38:57.000Z,2689
2023-07-25T10:40:13.000Z,2741
2023-07-25T10:41:30.000Z,2730
2023-07-25T10:44:02.000Z,3025
2023-07-25T10:45:18.000Z,3266
2023-07-25T10:46:35.000Z,3882
2023-07-25T10:47:51.000Z,4141
2023-07-25T10:49:06.000Z,4393
2023-07-25T10:50:22.000Z,4419
2023-07-25T10:51:38.000Z,4856
2023-07-25T10:52:55.000Z,4749
2023-07-25T10:54:11.000Z,4728
2023-07-25T10:55:27.000Z,4854
2023-07-25T10:56:43.000Z,4530
2023-07-25T10:58:00.000Z,3948
2023-07-25T10:59:16.000Z,4596
2023-07-25T11:00:32.000Z,5925
2023-07-25T11:01:48.000Z,7830
2023-07-25T11:03:05.000Z,8893
2023-07-25T11:04:21.000Z,9452
2023-07-25T11:05:36.000Z,10137
2023-07-25T11:06:52.000Z,9128
2023-07-25T11:08:09.220Z,7129
2023-07-25T11:09:25.000Z,5162
2023-07-25T11:10:41.000Z,10811
2023-07-25T11:11:57.000Z,9322
2023-07-25T11:13:13.000Z,11427
2023-07-25T11:14:30.000Z,10066
2023-07-25T11:15:46.000Z,7502
2023-07-25T11:17:02.866Z,11377
2023-07-25T11:18:18.000Z,8318
2023-07-25T11:19:35.000Z,5840
2023-07-25T11:20:51.000Z,7751
2023-07-25T11:22:06.000Z,6668
2023-07-25T11:23:22.000Z,6649
2023-07-25T11:24:39.000Z,6651
2023-07-25T11:25:55.000Z,6519
2023-07-25T11:27:11.000Z,7167
2023-07-25T11:28:27.000Z,6406
2023-07-25T11:29:43.000Z,5980
2023-07-25T11:31:00.000Z,5533
2023-07-25T11:32:16.000Z,5928
2023-07-25T11:33:32.000Z,5534
2023-07-25T11:34:48.000Z,4865
2023-07-25T11:36:05.000Z,4103
2023-07-25T11:37:21.000Z,3382
2023-07-25T11:38:36.000Z,2882
2023-07-25T11:39:52.000Z,2176
2023-07-25T11:41:09.000Z,1818
2023-07-25T11:42:25.000Z,1513
2023-07-25T11:43:41.000Z,1526
2023-07-25T11:44:57.000Z,1742
2023-07-25T11:46:14.267Z,1403
2023-07-25T11:47:30.000Z,1443
2023-07-25T11:48:46.000Z,2089
2023-07-25T11:50:02.000Z,2024
2023-07-25T11:51:18.000Z,2573
2023-07-25T11:52:35.000Z,2360
2023-07-25T11:53:51.000Z,3003
2023-07-25T11:55:06.000Z,2853
2023-07-25T11:56:22.000Z,3280
2023-07-25T11:57:39.000Z,3858
2023-07-25T11:58:55.000Z,4327
2023-07-25T12:00:11.821Z,3086
2023-07-25T12:01:27.000Z,7294
2023-07-25T12:02:44.000Z,5885
2023-07-25T12:04:00.000Z,6110
2023-07-25T12:05:16.000Z,5559
2023-07-25T12:06:32.000Z,5909
2023-07-25T12:07:48.000Z,5688
2023-07-25T12:09:05.000Z,5029
2023-07-25T12:10:21.000Z,4691
2023-07-25T12:11:36.000Z,4322
2023-07-25T12:12:52.000Z,3717
2023-07-25T12:14:09.000Z,3182
2023-07-25T12:15:25.647Z,2833
2023-07-25T12:16:41.000Z,2599
2023-07-25T12:17:57.000Z,2376
2023-07-25T12:19:14.000Z,2204
2023-07-25T12:20:30.000Z,2234
2023-07-25T12:21:46.000Z,1116
2023-07-25T12:23:02.000Z,3941
2023-07-25T12:24:19.000Z,4143
2023-07-25T12:25:35.000Z,4876
2023-07-25T12:26:51.000Z,6864
2023-07-25T12:28:06.000Z,5673
2023-07-25T12:29:22.000Z,6242
2023-07-25T12:30:39.000Z,6732
2023-07-25T12:31:55.000Z,6470
2023-07-25T12:33:11.000Z,6758
2023-07-25T12:34:27.000Z,5119
2023-07-25T12:35:44.000Z,8146
2023-07-25T12:37:00.000Z,5327
2023-07-25T12:38:16.000Z,4396
2023-07-25T12:39:32.000Z,7335
2023-07-25T12:40:49.000Z,10082
2023-07-25T12:42:05.000Z,8716
2023-07-25T12:43:21.000Z,7623
2023-07-25T12:44:36.000Z,7928
2023-07-25T12:45:53.000Z,5935
2023-07-25T12:47:09.000Z,7708
2023-07-25T12:48:25.000Z,5908
2023-07-25T12:49:41.000Z,5149
2023-07-25T12:50:57.000Z,4771
2023-07-25T12:52:14.000Z,4357
2023-07-25T12:53:30.000Z,3990
2023-07-25T12:54:46.000Z,3287
2023-07-25T12:56:02.000Z,2478
2023-07-25T12:57:19.000Z,1951
2023-07-25T12:58:35.000Z,1497
2023-07-25T12:59:51.000Z,1241
2023-07-25T13:01:06.000Z,1078
2023-07-25T13:02:23.000Z,991
2023-07-25T13:03:39.000Z,981
2023-07-25T13:04:55.000Z,1036
2023-07-25T13:06:11.000Z,1182
2023-07-25T13:07:28.000Z,1361
2023-07-25T13:08:44.000Z,1492
2023-07-25T13:10:00.000Z,1557
2023-07-25T13:11:16.000Z,1737
2023-07-25T13:12:33.173Z,2116
2023-07-25T13:13:49.000Z,2036
2023-07-25T13:16:21.000Z,2708
2023-07-25T13:17:37.000Z,3253
2023-07-25T13:18:53.000Z,4490
2023-07-25T13:20:09.000Z,4302
2023-07-25T13:21:25.000Z,4534
2023-07-25T13:22:41.000Z,2109
2023-07-25T13:23:58.000Z,8130
2023-07-25T13:25:14.000Z,5443
2023-07-25T13:26:30.000Z,5514
2023-07-25T13:27:46.986Z,5769
2023-07-25T13:29:02.000Z,7105
2023-07-25T13:30:19.000Z,7767
2023-07-25T13:31:35.000Z,7440
2023-07-25T13:32:51.000Z,2540
2023-07-25T13:34:07.000Z,7236
2023-07-25T13:35:23.000Z,7519
2023-07-25T13:36:39.000Z,7327
2023-07-25T13:37:55.926Z,6835
2023-07-25T13:39:11.000Z,7357
2023-07-25T13:40:28.000Z,2472
2023-07-25T13:41:44.000Z,6651
2023-07-25T13:43:00.000Z,6041
2023-07-25T13:44:16.000Z,7019
2023-07-25T13:45:33.000Z,4455
2023-07-25T13:46:49.000Z,3970
2023-07-25T13:48:05.000Z,4139
2023-07-25T13:49:21.000Z,2158
2023-07-25T13:50:37.000Z,4964
2023-07-25T13:51:53.000Z,5836
2023-07-25T13:53:09.000Z,5851
2023-07-25T13:54:25.000Z,6100
2023-07-25T13:55:41.000Z,7557
2023-07-25T13:56:58.000Z,4667
2023-07-25T13:58:13.000Z,6263
2023-07-25T13:59:29.000Z,5872
2023-07-25T14:00:45.000Z,6269
2023-07-25T14:02:02.000Z,6280
2023-07-25T14:03:18.577Z,6636
2023-07-25T14:04:34.000Z,5680
2023-07-25T14:05:50.000Z,6071
2023-07-25T14:07:07.000Z,6811
2023-07-25T14:08:23.000Z,4141
2023-07-25T14:09:39.000Z,5012
2023-07-25T14:10:55.000Z,5478
2023-07-25T14:12:11.000Z,5408
2023-07-25T14:13:28.000Z,5277
2023-07-25T14:14:43.000Z,4869
2023-07-25T14:15:59.000Z,5618
2023-07-25T14:17:15.000Z,3986
2023-07-25T14:18:32.382Z,5189
2023-07-25T14:19:48.000Z,5360
2023-07-25T14:21:04.000Z,4697
2023-07-25T14:22:20.000Z,4486
2023-07-25T14:23:37.000Z,4247
2023-07-25T14:24:53.000Z,4146
2023-07-25T14:26:09.000Z,3999
2023-07-25T14:27:25.000Z,3804
2023-07-25T14:28:42.000Z,3890
2023-07-25T14:29:58.000Z,3883
2023-07-25T14:31:13.000Z,3943
2023-07-25T14:32:29.000Z,3859
2023-07-25T14:33:45.000Z,4075
2023-07-25T14:35:02.000Z,4015
2023-07-25T14:36:18.000Z,3507
2023-07-25T14:37:34.000Z,4094
2023-07-25T14:38:50.000Z,3844
2023-07-25T14:40:07.000Z,4176
2023-07-25T14:41:23.000Z,4518
2023-07-25T14:42:39.000Z,3644
2023-07-25T14:43:55.000Z,4276
2023-07-25T14:45:12.000Z,4241
2023-07-25T14:46:28.000Z,4136
2023-07-25T14:47:43.000Z,4210
2023-07-25T14:48:59.000Z,4368
2023-07-25T14:50:15.000Z,4033
2023-07-25T14:51:32.475Z,3650
2023-07-25T14:52:48.000Z,3751
2023-07-25T14:54:04.000Z,3826
2023-07-25T14:55:20.000Z,3939
2023-07-25T14:57:53.000Z,4121
2023-07-25T14:59:09.000Z,4001
2023-07-25T15:00:25.000Z,4051
2023-07-25T15:01:42.000Z,3679
2023-07-25T15:02:58.000Z,2972
2023-07-25T15:04:13.000Z,4910
2023-07-25T15:05:29.000Z,4094
2023-07-25T15:06:46.000Z,4075
2023-07-25T15:08:02.000Z,3881
2023-07-25T15:09:18.000Z,3591
2023-07-25T15:10:34.000Z,3645
2023-07-25T15:11:50.000Z,3881
2023-07-25T15:13:07.000Z,3224
2023-07-25T15:14:23.000Z,3745
2023-07-25T15:15:39.000Z,3496
2023-07-25T15:16:55.000Z,4359
2023-07-25T15:18:12.000Z,2857
2023-07-25T15:19:28.628Z,4260
2023-07-25T15:20:44.000Z,2960
2023-07-25T15:21:59.000Z,3400
2023-07-25T15:23:16.000Z,3552
2023-07-25T15:24:32.000Z,3561
2023-07-25T15:25:48.000Z,3596
2023-07-25T15:27:04.000Z,3501
2023-07-25T15:28:21.000Z,3770
2023-07-25T15:29:37.000Z,3177
2023-07-25T15:30:53.000Z,2273
2023-07-25T15:32:09.000Z,2821
2023-07-25T15:33:25.000Z,3298
2023-07-25T15:35:58.000Z,3029
2023-07-25T15:37:14.000Z,3168
2023-07-25T15:38:29.000Z,3308
2023-07-25T15:39:46.000Z,3022
2023-07-25T15:41:02.000Z,2951
2023-07-25T15:42:18.000Z,2723
2023-07-25T15:43:34.000Z,2624
2023-07-25T15:44:51.000Z,2540
2023-07-25T15:46:07.000Z,2412
2023-07-25T15:48:39.000Z,1995
2023-07-25T15:49:55.000Z,2808
2023-07-25T15:51:12.000Z,2774
2023-07-25T15:52:28.000Z,2069
2023-07-25T15:53:44.922Z,2919
2023-07-25T15:54:59.000Z,3031
2023-07-25T15:56:16.000Z,3113
2023-07-25T15:57:32.000Z,3388
2023-07-25T15:58:48.000Z,3183
2023-07-25T16:00:05.110Z,2798
2023-07-25T16:01:21.000Z,3019
2023-07-25T16:02:37.000Z,3022
2023-07-25T16:03:53.000Z,3011
2023-07-25T16:05:09.000Z,3162
2023-07-25T16:06:26.000Z,3091
2023-07-25T16:07:42.000Z,2897
2023-07-25T16:08:58.000Z,3010
2023-07-25T16:10:14.000Z,3365
2023-07-25T16:11:30.000Z,2460
2023-07-25T16:12:46.000Z,3177
2023-07-25T16:14:02.000Z,2642
2023-07-25T16:15:18.000Z,2558
2023-07-25T16:16:34.000Z,2402
2023-07-25T16:17:51.000Z,2305
2023-07-25T16:19:07.000Z,2255
2023-07-25T16:20:23.000Z,2187
2023-07-25T16:21:39.000Z,2052
2023-07-25T16:22:56.000Z,1994
2023-07-25T16:24:12.000Z,1979
2023-07-25T16:26:44.000Z,2028
2023-07-25T16:28:00.000Z,2074
2023-07-25T16:29:16.000Z,2118
2023-07-25T16:30:32.000Z,2153
2023-07-25T16:31:48.000Z,2205
2023-07-25T16:33:04.000Z,2275
2023-07-25T16:34:21.000Z,2381
2023-07-25T16:35:37.000Z,2437
2023-07-25T16:36:53.000Z,2512
2023-07-25T16:38:10.149Z,2456
2023-07-25T16:39:26.000Z,2151
2023-07-25T16:40:42.000Z,2425
2023-07-25T16:41:58.000Z,2026
2023-07-25T16:43:14.000Z,2266
2023-07-25T16:44:30.000Z,2354
2023-07-25T16:45:46.000Z,2537
2023-07-25T16:47:02.000Z,2204
2023-07-25T16:48:18.000Z,2456
2023-07-25T16:49:35.000Z,2103
2023-07-25T16:50:51.000Z,2310
2023-07-25T16:52:07.000Z,2209
2023-07-25T16:53:23.000Z,1517
2023-07-25T16:54:39.000Z,1882
2023-07-25T16:55:56.000Z,2012
2023-07-25T16:57:12.000Z,1848
2023-07-25T16:58:28.000Z,2011
2023-07-25T16:59:44.000Z,2467
2023-07-25T17:01:00.000Z,1504
2023-07-25T17:02:16.000Z,2293
2023-07-25T17:03:32.838Z,1972
2023-07-25T17:04:48.000Z,1992
2023-07-25T17:06:05.000Z,1996
2023-07-25T17:07:21.000Z,2001
2023-07-25T17:08:37.000Z,1886
2023-07-25T17:09:53.000Z,2014
2023-07-25T17:11:10.000Z,2059
2023-07-25T17:12:26.000Z,1882
2023-07-25T17:13:42.000Z,2150
2023-07-25T17:14:58.000Z,1936
2023-07-25T17:16:14.000Z,1784
2023-07-25T17:17:30.000Z,1869
2023-07-25T17:18:46.000Z,1817
2023-07-25T17:20:02.000Z,1783
2023-07-25T17:21:18.000Z,1765
2023-07-25T17:22:35.000Z,1714
2023-07-25T17:23:51.000Z,1754
2023-07-25T17:25:07.000Z,1558
2023-07-25T17:26:24.061Z,1663
2023-07-25T17:27:40.000Z,1594
2023-07-25T17:28:56.000Z,1571
2023-07-25T17:30:12.000Z,1585
2023-07-25T17:31:28.000Z,1570
2023-07-25T17:32:44.000Z,1550